Time;durP1;ratioP1;P1;durP2;ratioP2;P2;SDS_P1;SDS_P2;PMS_P1;PMS_P2;Temp;Humidity;BMP_temperature;BMP_pressure;BME280_temperature;BME280_humidity;BME280_pressure;Samples;Min_cycle;Max_cycle;Signal;HPM_P1;HPM_P2
2023/05/15 00:00:15;;;;;;;4.95;1.90;;;20.50;1.00;;;;;;4820287;29;20061;-42
2023/05/15 00:02:43;;;;;;;3.15;1.63;;;20.50;1.00;;;;;;4817252;29;20050;-42
2023/05/15 00:05:11;;;;;;;2.42;1.80;;;20.50;1.00;;;;;;4823629;29;20075;-42
2023/05/15 00:07:39;;;;;;;2.95;2.05;;;20.50;1.00;;;;;;4815067;29;20051;-43
2023/05/15 00:10:07;;;;;;;2.60;1.85;;;20.40;1.00;;;;;;4822534;29;20054;-42
2023/05/15 00:12:34;;;;;;;4.43;2.38;;;20.40;1.00;;;;;;4807804;29;20054;-44
2023/05/15 00:15:01;;;;;;;3.58;1.70;;;20.40;1.00;;;;;;4815082;29;20038;-42
2023/05/15 00:17:27;;;;;;;2.63;1.80;;;20.40;1.00;;;;;;5082079;24;20074;-44
2023/05/15 00:19:56;;;;;;;3.63;1.88;;;20.40;1.00;;;;;;4818635;29;20411;-43
2023/05/15 00:22:23;;;;;;;3.42;1.95;;;20.40;1.00;;;;;;4814799;29;20038;-43
2023/05/15 00:24:50;;;;;;;3.50;1.30;;;20.40;1.00;;;;;;4825710;29;20066;-42
2023/05/15 00:27:17;;;;;;;2.85;1.88;;;20.40;1.00;;;;;;4815758;29;20047;-44
2023/05/15 00:29:44;;;;;;;3.20;1.75;;;20.40;1.00;;;;;;4819333;29;20047;-44
2023/05/15 00:32:11;;;;;;;4.20;1.70;;;20.30;1.00;;;;;;4823956;29;20510;-44
2023/05/15 00:34:38;;;;;;;2.13;1.40;;;20.30;1.00;;;;;;4825146;29;20042;-44
2023/05/15 00:37:05;;;;;;;2.85;1.60;;;20.30;1.00;;;;;;4816373;29;20055;-44
2023/05/15 00:39:31;;;;;;;2.95;1.63;;;20.30;1.00;;;;;;4825413;29;20058;-43
2023/05/15 00:41:59;;;;;;;2.67;1.58;;;20.40;1.00;;;;;;4818171;29;20070;-45
2023/05/15 00:44:32;;;;;;;1.95;1.50;;;20.30;1.00;;;;;;4817815;29;20052;-43
2023/05/15 00:47:01;;;;;;;3.63;1.63;;;20.30;1.00;;;;;;4823919;29;20145;-43
2023/05/15 00:49:29;;;;;;;4.85;1.75;;;20.30;1.00;;;;;;4956777;24;20133;-44
2023/05/15 00:51:56;;;;;;;1.98;1.42;;;20.30;1.00;;;;;;4822278;29;20046;-46
2023/05/15 00:54:24;;;;;;;2.47;1.50;;;20.30;1.00;;;;;;4810846;29;20388;-44
2023/05/15 00:56:54;;;;;;;4.97;1.30;;;20.30;1.00;;;;;;4818858;29;20404;-44
2023/05/15 00:59:23;;;;;;;1.95;1.40;;;20.30;1.00;;;;;;4814869;29;20107;-43
2023/05/15 01:01:49;;;;;;;3.28;1.58;;;20.30;1.00;;;;;;4824073;29;20054;-44
2023/05/15 01:04:16;;;;;;;2.03;1.48;;;20.30;1.00;;;;;;4823528;29;20054;-44
2023/05/15 01:06:43;;;;;;;2.75;1.27;;;20.30;1.00;;;;;;4818237;29;20051;-44
2023/05/15 01:09:11;;;;;;;2.35;1.38;;;20.30;1.00;;;;;;4821232;29;20481;-45
2023/05/15 01:11:40;;;;;;;2.30;1.50;;;20.30;1.00;;;;;;4823638;29;20062;-44
2023/05/15 01:14:08;;;;;;;2.80;1.60;;;20.30;1.00;;;;;;4814863;29;20055;-43
2023/05/15 01:16:35;;;;;;;2.08;1.50;;;20.20;1.00;;;;;;4814066;29;20454;-46
2023/05/15 01:19:03;;;;;;;2.60;1.65;;;20.20;1.00;;;;;;4813617;29;20457;-43
2023/05/15 01:21:36;;;;;;;2.63;1.65;;;20.20;1.00;;;;;;4817277;29;20046;-44
2023/05/15 01:24:33;;;;;;;2.60;1.60;;;20.20;1.00;;;;;;4824425;29;20046;-43
2023/05/15 01:27:31;;;;;;;1.60;1.40;;;20.20;1.00;;;;;;4813956;29;20258;-43
2023/05/15 01:30:21;;;;;;;4.85;2.22;;;20.20;1.00;;;;;;4814054;29;20495;-44
2023/05/15 01:33:06;;;;;;;5.40;1.85;;;20.20;1.00;;;;;;4805289;29;20047;-43
2023/05/15 01:35:37;;;;;;;3.78;1.70;;;20.20;1.00;;;;;;4806243;29;20089;-43
2023/05/15 01:38:37;;;;;;;1.88;1.40;;;20.10;1.00;;;;;;4812567;29;20051;-44
2023/05/15 01:41:13;;;;;;;2.85;1.88;;;20.10;1.00;;;;;;4815709;29;20054;-44
2023/05/15 01:43:44;;;;;;;2.78;1.85;;;20.10;1.00;;;;;;4818071;29;20107;-44
2023/05/15 01:46:18;;;;;;;3.65;1.55;;;20.10;1.00;;;;;;4807722;29;20050;-43
2023/05/15 01:48:46;;;;;;;1.52;1.30;;;20.10;1.00;;;;;;4817859;29;20393;-44
2023/05/15 01:51:15;;;;;;;3.75;1.38;;;20.10;1.00;;;;;;4813278;29;20444;-43
2023/05/15 01:53:43;;;;;;;3.10;1.65;;;20.10;1.00;;;;;;4824040;29;20119;-43
2023/05/15 01:56:14;;;;;;;1.38;1.15;;;20.10;1.00;;;;;;4816339;29;20115;-43
2023/05/15 01:58:42;;;;;;;1.95;1.40;;;20.10;1.00;;;;;;4822888;29;20046;-44
2023/05/15 02:01:09;;;;;;;3.47;1.20;;;20.10;1.00;;;;;;4816333;29;20047;-45
2023/05/15 02:03:37;;;;;;;2.38;2.00;;;20.10;1.00;;;;;;4815391;29;20503;-44
2023/05/15 02:06:05;;;;;;;1.50;1.20;;;20.10;1.00;;;;;;4823767;29;20126;-45
2023/05/15 02:08:33;;;;;;;3.45;1.80;;;20.00;1.00;;;;;;4822763;29;20061;-44
2023/05/15 02:11:01;;;;;;;2.08;1.85;;;20.00;1.00;;;;;;4822843;29;20047;-43
2023/05/15 02:13:30;;;;;;;1.73;1.50;;;20.00;1.00;;;;;;4804683;29;20313;-44
2023/05/15 02:15:57;;;;;;;2.60;1.67;;;20.00;1.00;;;;;;4818378;29;20246;-44
2023/05/15 02:18:27;;;;;;;1.55;1.40;;;20.00;1.00;;;;;;4814893;29;20096;-44
2023/05/15 02:20:56;;;;;;;2.08;1.20;;;20.00;1.00;;;;;;5281322;23;20043;-43
2023/05/15 02:23:23;;;;;;;4.75;2.15;;;20.00;1.00;;;;;;4831252;29;20046;-43
2023/05/15 02:25:59;;;;;;;4.18;1.83;;;20.00;1.00;;;;;;4833700;29;20041;-44
2023/05/15 02:28:35;;;;;;;2.80;1.63;;;19.90;1.00;;;;;;4831516;29;20054;-43
2023/05/15 02:31:28;;;;;;;2.10;1.50;;;20.00;1.00;;;;;;4836814;29;20050;-43
2023/05/15 02:34:25;;;;;;;2.70;1.50;;;19.90;1.00;;;;;;4841795;29;20057;-43
2023/05/15 02:36:54;;;;;;;2.70;1.73;;;19.90;1.00;;;;;;4831764;29;20042;-43
2023/05/15 02:39:23;;;;;;;3.15;2.20;;;19.90;1.00;;;;;;4833104;29;20086;-43
2023/05/15 02:41:52;;;;;;;3.85;1.52;;;19.90;1.00;;;;;;4840426;29;20106;-43
2023/05/15 02:44:20;;;;;;;2.25;1.50;;;19.90;1.00;;;;;;4825136;29;20057;-44
2023/05/15 02:46:49;;;;;;;2.40;1.70;;;19.90;1.00;;;;;;4840317;29;20110;-43
2023/05/15 02:49:16;;;;;;;2.33;1.50;;;19.90;1.00;;;;;;4832815;29;20081;-44
2023/05/15 02:51:45;;;;;;;1.98;1.50;;;19.90;1.00;;;;;;4829280;29;20103;-44
2023/05/15 02:54:12;;;;;;;3.05;1.73;;;19.90;1.00;;;;;;5050709;24;20060;-45
2023/05/15 02:56:39;;;;;;;2.70;1.60;;;19.90;1.00;;;;;;4841060;29;20081;-44
2023/05/15 02:59:06;;;;;;;2.38;1.20;;;19.90;1.00;;;;;;4832797;29;20050;-44
2023/05/15 03:01:32;;;;;;;2.13;1.70;;;19.80;1.00;;;;;;4825092;29;20057;-45
2023/05/15 03:03:59;;;;;;;1.90;1.63;;;19.80;1.00;;;;;;4839806;29;20467;-44
2023/05/15 03:06:27;;;;;;;2.35;1.60;;;19.90;1.00;;;;;;4829925;29;20042;-46
2023/05/15 03:08:53;;;;;;;1.70;1.05;;;19.90;1.00;;;;;;4836400;29;20118;-44
2023/05/15 03:11:20;;;;;;;2.72;1.27;;;19.90;1.00;;;;;;4838059;29;20144;-44
2023/05/15 03:13:47;;;;;;;3.15;1.75;;;19.80;1.00;;;;;;4834168;29;20066;-44
2023/05/15 03:16:14;;;;;;;3.72;1.58;;;19.80;1.00;;;;;;4817141;29;20506;-44
2023/05/15 03:18:41;;;;;;;2.45;1.60;;;19.80;1.00;;;;;;4839862;29;20052;-45
2023/05/15 03:21:08;;;;;;;2.85;1.30;;;19.80;1.00;;;;;;4839878;29;20050;-46
2023/05/15 03:23:34;;;;;;;2.75;1.52;;;19.80;1.00;;;;;;4833583;29;20542;-44
2023/05/15 03:26:03;;;;;;;1.83;1.10;;;19.80;1.00;;;;;;4848187;23;20050;-43
2023/05/15 03:28:30;;;;;;;2.90;1.70;;;19.80;1.00;;;;;;4815768;29;20464;-44
2023/05/15 03:30:57;;;;;;;2.47;1.60;;;19.80;1.00;;;;;;4816858;29;20051;-42
2023/05/15 03:33:24;;;;;;;2.85;1.30;;;19.80;1.00;;;;;;4822394;29;20038;-43
2023/05/15 03:35:51;;;;;;;2.65;1.30;;;19.70;1.00;;;;;;4821157;29;20058;-43
2023/05/15 03:38:19;;;;;;;3.20;1.88;;;19.70;1.00;;;;;;4821475;29;20042;-44
2023/05/15 03:40:46;;;;;;;1.83;1.23;;;19.70;1.00;;;;;;4810868;29;20062;-44
2023/05/15 03:43:16;;;;;;;3.45;1.73;;;19.70;1.00;;;;;;4812394;29;20463;-44
2023/05/15 03:45:43;;;;;;;2.55;1.90;;;19.70;1.00;;;;;;4818451;29;20507;-43
2023/05/15 03:48:10;;;;;;;2.78;1.60;;;19.70;1.00;;;;;;4811749;29;20415;-43
2023/05/15 03:50:38;;;;;;;3.65;1.58;;;19.70;1.00;;;;;;4795697;29;20182;-43
2023/05/15 03:53:04;;;;;;;3.00;1.50;;;19.70;1.00;;;;;;4816864;29;20042;-44
2023/05/15 03:55:31;;;;;;;2.15;1.60;;;19.70;1.00;;;;;;4819178;29;20051;-43
2023/05/15 03:57:58;;;;;;;2.90;1.30;;;19.70;1.00;;;;;;4812266;29;20035;-44
2023/05/15 04:00:26;;;;;;;2.78;1.58;;;19.70;1.00;;;;;;4804943;29;20536;-43
2023/05/15 04:02:53;;;;;;;4.55;1.63;;;19.70;1.00;;;;;;4809570;29;20042;-44
2023/05/15 04:05:21;;;;;;;2.85;1.58;;;19.70;1.00;;;;;;4815973;29;20034;-44
2023/05/15 04:07:48;;;;;;;2.40;1.88;;;19.60;1.00;;;;;;4811626;29;20046;-43
2023/05/15 04:10:14;;;;;;;2.15;1.15;;;19.60;1.00;;;;;;4819083;29;20050;-45
2023/05/15 04:12:41;;;;;;;3.40;1.38;;;19.60;1.00;;;;;;4815205;29;20042;-43
2023/05/15 04:15:19;;;;;;;2.10;1.83;;;19.60;1.00;;;;;;4815389;29;20103;-43
2023/05/15 04:17:46;;;;;;;2.13;1.30;;;19.60;1.00;;;;;;4804057;29;20039;-44
2023/05/15 04:20:15;;;;;;;5.25;1.88;;;19.60;1.00;;;;;;4819224;29;20062;-44
2023/05/15 04:22:42;;;;;;;1.83;1.30;;;19.60;1.00;;;;;;4822310;29;20060;-43
2023/05/15 04:25:10;;;;;;;2.10;1.55;;;19.60;1.00;;;;;;4822157;29;20103;-43
2023/05/15 04:27:37;;;;;;;1.95;1.33;;;19.60;1.00;;;;;;4905238;24;20058;-43
2023/05/15 04:30:05;;;;;;;6.03;1.65;;;19.60;1.00;;;;;;4838600;29;20045;-43
2023/05/15 04:32:32;;;;;;;2.85;1.70;;;19.60;1.00;;;;;;4837679;29;20375;-42
2023/05/15 04:35:00;;;;;;;2.80;1.77;;;19.60;1.00;;;;;;4821880;29;20070;-42
2023/05/15 04:37:28;;;;;;;3.72;2.17;;;19.50;1.00;;;;;;4814228;29;20053;-44
2023/05/15 04:39:54;;;;;;;3.42;1.70;;;19.60;1.00;;;;;;4817056;29;20449;-42
2023/05/15 04:42:21;;;;;;;2.08;1.35;;;19.60;1.00;;;;;;4803770;29;20560;-44
2023/05/15 04:44:48;;;;;;;1.80;1.42;;;19.50;1.00;;;;;;4815535;29;20525;-43
2023/05/15 04:47:14;;;;;;;2.05;1.63;;;19.50;1.00;;;;;;4820427;29;20439;-42
2023/05/15 04:49:41;;;;;;;3.15;1.58;;;19.60;1.00;;;;;;4815366;29;20046;-43
2023/05/15 04:52:08;;;;;;;1.63;1.50;;;19.50;1.00;;;;;;4824047;29;20506;-43
2023/05/15 04:54:35;;;;;;;2.42;1.63;;;19.50;1.00;;;;;;4824705;29;20056;-43
2023/05/15 05:00:10;;;;;;;1.90;1.63;;;19.50;1.00;;;;;;4961895;23;20399;-43
2023/05/15 05:02:37;;;;;;;;;;;19.50;1.00;;;;;;4842696;29;20053;-45
2023/05/15 05:05:06;;;;;;;1.42;1.30;;;19.50;1.00;;;;;;4837030;29;19964;-43
2023/05/15 05:07:34;;;;;;;3.33;1.88;;;19.50;1.00;;;;;;4838405;29;20418;-43
2023/05/15 05:10:01;;;;;;;2.55;2.22;;;19.50;1.00;;;;;;4829898;29;20553;-43
2023/05/15 05:12:28;;;;;;;2.20;1.33;;;19.40;1.00;;;;;;4841843;29;20076;-43
2023/05/15 05:14:55;;;;;;;2.92;1.88;;;19.40;1.00;;;;;;4835367;29;20094;-43
2023/05/15 05:17:22;;;;;;;1.35;1.25;;;19.50;1.00;;;;;;4842672;29;20046;-43
2023/05/15 05:19:49;;;;;;;2.05;1.40;;;19.50;1.00;;;;;;4843075;29;20529;-43
2023/05/15 05:22:16;;;;;;;2.38;1.65;;;19.50;1.00;;;;;;4835036;29;20041;-43
2023/05/15 05:24:43;;;;;;;3.67;1.63;;;19.50;1.00;;;;;;4827977;29;20042;-43
2023/05/15 05:27:09;;;;;;;2.25;1.42;;;19.50;1.00;;;;;;4835243;29;20487;-44
2023/05/15 05:29:36;;;;;;;2.55;1.48;;;19.40;1.00;;;;;;4842663;29;20046;-44
2023/05/15 05:32:03;;;;;;;3.50;1.40;;;19.40;1.00;;;;;;4916341;23;20049;-44
2023/05/15 05:34:30;;;;;;;2.10;1.65;;;19.40;1.00;;;;;;4834659;29;20122;-45
2023/05/15 05:36:57;;;;;;;2.85;1.73;;;19.40;1.00;;;;;;4842942;29;20395;-43
2023/05/15 05:39:23;;;;;;;2.75;1.98;;;19.40;1.00;;;;;;4838448;29;20056;-43
2023/05/15 05:41:50;;;;;;;2.45;1.95;;;19.40;1.00;;;;;;4836628;29;20044;-44
2023/05/15 05:44:17;;;;;;;3.00;1.70;;;19.40;1.00;;;;;;4834815;29;20086;-43
2023/05/15 05:46:44;;;;;;;2.75;1.98;;;19.40;1.00;;;;;;4838868;29;20039;-45
2023/05/15 05:49:11;;;;;;;3.58;2.17;;;19.40;1.00;;;;;;4832270;29;20038;-44
2023/05/15 05:51:38;;;;;;;3.85;2.08;;;19.40;1.00;;;;;;4831578;29;20052;-44
2023/05/15 05:54:05;;;;;;;2.17;1.60;;;19.40;1.00;;;;;;4837469;29;20092;-43
2023/05/15 05:56:31;;;;;;;3.25;2.22;;;19.40;1.00;;;;;;4827005;29;20129;-43
2023/05/15 05:59:00;;;;;;;1.90;1.67;;;19.40;1.00;;;;;;4837282;29;20066;-43
2023/05/15 06:01:27;;;;;;;2.35;1.75;;;19.40;1.00;;;;;;4881909;24;20046;-44
2023/05/15 06:03:54;;;;;;;2.17;1.95;;;19.40;1.00;;;;;;4838280;29;20042;-44
2023/05/15 06:06:22;;;;;;;2.53;1.73;;;19.40;1.00;;;;;;4834282;29;20539;-43
2023/05/15 06:08:49;;;;;;;2.25;1.92;;;19.30;1.00;;;;;;4842154;29;20064;-44
2023/05/15 06:11:15;;;;;;;1.88;1.63;;;19.30;1.00;;;;;;4841928;29;20479;-43
2023/05/15 06:13:43;;;;;;;2.42;1.60;;;19.40;1.00;;;;;;4841982;29;20149;-42
2023/05/15 06:16:10;;;;;;;1.90;1.70;;;19.30;1.00;;;;;;4835345;29;20070;-43
2023/05/15 06:18:37;;;;;;;3.47;2.10;;;19.30;1.00;;;;;;4838830;29;20058;-43
2023/05/15 06:21:04;;;;;;;2.10;1.80;;;19.30;1.00;;;;;;4829345;29;20517;-45
2023/05/15 06:23:30;;;;;;;2.33;1.65;;;19.30;1.00;;;;;;4841609;29;20046;-44
2023/05/15 06:25:57;;;;;;;4.80;2.17;;;19.30;1.00;;;;;;4836911;29;20046;-46
2023/05/15 06:28:24;;;;;;;2.50;1.90;;;19.30;1.00;;;;;;4838989;29;20045;-45
2023/05/15 06:30:51;;;;;;;3.85;2.25;;;19.30;1.00;;;;;;4834238;29;20546;-43
2023/05/15 06:33:20;;;;;;;2.63;2.33;;;19.30;1.00;;;;;;4841800;29;20045;-44
2023/05/15 06:35:47;;;;;;;3.92;2.42;;;19.30;1.00;;;;;;4841674;29;20073;-43
2023/05/15 06:38:14;;;;;;;2.33;1.83;;;19.30;1.00;;;;;;4834118;29;20073;-44
2023/05/15 06:40:40;;;;;;;3.47;2.70;;;19.30;1.00;;;;;;4841429;29;20506;-46
2023/05/15 06:43:07;;;;;;;5.10;2.78;;;19.30;1.00;;;;;;4841684;29;20102;-43
2023/05/15 06:45:34;;;;;;;2.80;2.20;;;19.30;1.00;;;;;;4839398;29;20460;-44
2023/05/15 06:48:01;;;;;;;3.63;2.47;;;19.30;1.00;;;;;;4835849;29;20079;-44
2023/05/15 06:50:28;;;;;;;3.22;2.25;;;19.30;1.00;;;;;;4841192;29;20407;-43
2023/05/15 06:52:55;;;;;;;2.83;2.38;;;19.30;1.00;;;;;;4837247;29;20043;-43
2023/05/15 06:55:21;;;;;;;2.58;1.85;;;19.30;1.00;;;;;;4830506;29;20538;-44
2023/05/15 06:57:48;;;;;;;7.53;2.53;;;19.30;1.00;;;;;;4830604;29;20395;-43
2023/05/15 07:00:16;;;;;;;3.72;2.28;;;19.30;1.00;;;;;;4829833;29;20042;-44
2023/05/15 07:02:42;;;;;;;4.32;2.10;;;19.30;1.00;;;;;;4823969;29;20088;-43
2023/05/15 07:05:10;;;;;;;2.90;2.55;;;19.30;1.00;;;;;;4829006;29;20102;-43
2023/05/15 07:07:37;;;;;;;3.20;2.25;;;19.30;1.00;;;;;;4825821;29;20110;-44
2023/05/15 07:10:04;;;;;;;2.90;1.98;;;19.30;1.00;;;;;;4841148;29;20080;-47
2023/05/15 07:12:31;;;;;;;3.50;2.63;;;19.20;1.00;;;;;;4840362;29;20041;-44
2023/05/15 07:14:58;;;;;;;3.58;2.70;;;19.30;1.00;;;;;;4841107;29;20042;-44
2023/05/15 07:17:25;;;;;;;3.88;2.80;;;19.20;1.00;;;;;;4826164;29;20058;-44
2023/05/15 07:19:52;;;;;;;3.28;2.47;;;19.20;1.00;;;;;;4833805;29;20077;-44
2023/05/15 07:22:19;;;;;;;2.95;2.42;;;19.20;1.00;;;;;;4841156;29;20102;-43
2023/05/15 07:24:46;;;;;;;3.80;2.28;;;19.20;1.00;;;;;;4833158;29;20054;-43
2023/05/15 07:27:13;;;;;;;3.13;2.70;;;19.20;1.00;;;;;;4834478;29;20551;-44
2023/05/15 07:29:40;;;;;;;3.53;2.80;;;19.20;1.00;;;;;;4839751;29;20058;-44
2023/05/15 07:35:10;;;;;;;3.97;2.90;;;19.20;1.00;;;;;;4832598;23;20055;-44
2023/05/15 07:37:38;;;;;;;3.70;2.72;;;19.20;1.00;;;;;;4835052;29;20046;-45
2023/05/15 07:40:06;;;;;;;5.43;3.05;;;19.20;1.00;;;;;;4840850;29;20058;-44
2023/05/15 07:42:32;;;;;;;3.78;3.10;;;19.20;1.00;;;;;;4832026;29;20049;-45
2023/05/15 07:44:59;;;;;;;3.33;2.97;;;19.20;1.00;;;;;;4826929;29;20115;-44
2023/05/15 07:47:26;;;;;;;4.25;3.17;;;19.20;1.00;;;;;;4832799;29;20049;-45
2023/05/15 07:49:53;;;;;;;5.47;2.80;;;19.20;1.00;;;;;;4830281;29;20459;-43
2023/05/15 07:52:20;;;;;;;5.35;2.83;;;19.20;1.00;;;;;;4829625;29;20042;-44
2023/05/15 07:54:46;;;;;;;4.32;3.15;;;19.20;1.00;;;;;;4832836;29;20112;-45
2023/05/15 07:57:14;;;;;;;4.63;3.38;;;19.20;1.00;;;;;;4832985;29;20053;-45
2023/05/15 07:59:41;;;;;;;5.60;3.60;;;19.20;1.00;;;;;;4832106;29;20088;-44
2023/05/15 08:02:07;;;;;;;3.38;2.92;;;19.20;1.00;;;;;;4840635;29;20498;-44
2023/05/15 08:04:34;;;;;;;3.85;2.67;;;19.20;1.00;;;;;;4825298;29;20123;-44
2023/05/15 08:07:01;;;;;;;4.70;2.88;;;19.20;1.00;;;;;;4837287;29;20042;-44
2023/05/15 08:09:28;;;;;;;3.40;2.83;;;19.20;1.00;;;;;;4824925;29;20046;-44
2023/05/15 08:11:55;;;;;;;4.05;3.17;;;19.20;1.00;;;;;;4830007;29;20042;-44
2023/05/15 08:14:22;;;;;;;3.80;3.22;;;19.20;1.00;;;;;;4822269;29;20038;-44
2023/05/15 08:16:50;;;;;;;3.90;2.97;;;19.20;1.00;;;;;;4829524;29;20069;-44
2023/05/15 08:19:18;;;;;;;5.05;3.10;;;19.20;1.00;;;;;;4828913;29;20490;-44
2023/05/15 08:21:45;;;;;;;3.50;2.92;;;19.20;1.00;;;;;;4840258;29;20506;-45
2023/05/15 08:24:11;;;;;;;4.82;3.75;;;19.20;1.00;;;;;;4840344;29;20046;-44
2023/05/15 08:26:38;;;;;;;4.35;3.35;;;19.20;1.00;;;;;;4834251;29;20054;-44
2023/05/15 08:29:05;;;;;;;3.88;3.13;;;19.20;1.00;;;;;;4838241;29;20050;-44
2023/05/15 08:31:32;;;;;;;3.55;3.05;;;19.20;1.00;;;;;;4828490;29;20127;-44
2023/05/15 08:33:59;;;;;;;3.13;2.65;;;19.10;1.00;;;;;;4836321;29;20034;-44
2023/05/15 08:36:26;;;;;;;7.88;3.40;;;19.10;1.00;;;;;;4835511;29;20049;-44
2023/05/15 08:38:53;;;;;;;4.53;3.13;;;19.10;1.00;;;;;;4837392;29;20054;-44
2023/05/15 08:41:31;;;;;;;4.05;3.45;;;19.10;1.00;;;;;;4839634;29;20038;-45
2023/05/15 08:44:09;;;;;;;5.05;2.90;;;19.10;1.00;;;;;;4843508;29;20426;-44
2023/05/15 08:46:36;;;;;;;3.65;2.90;;;19.10;1.00;;;;;;4835819;29;20042;-44
2023/05/15 08:49:30;;;;;;;4.72;3.20;;;19.10;1.00;;;;;;4843892;29;20067;-45
2023/05/15 08:51:57;;;;;;;3.30;2.90;;;19.10;1.00;;;;;;4822159;29;20042;-44
2023/05/15 08:54:24;;;;;;;5.25;3.25;;;19.10;1.00;;;;;;4840770;29;20046;-46
2023/05/15 08:56:52;;;;;;;3.80;3.20;;;19.10;1.00;;;;;;4838737;29;20043;-44
2023/05/15 08:59:19;;;;;;;3.55;2.78;;;19.10;1.00;;;;;;4839212;29;20038;-44
2023/05/15 09:01:46;;;;;;;4.38;2.95;;;19.10;1.00;;;;;;4840978;29;20053;-44
2023/05/15 09:04:13;;;;;;;4.05;2.78;;;19.10;1.00;;;;;;4824917;29;20419;-45
2023/05/15 09:06:40;;;;;;;3.72;3.20;;;19.10;1.00;;;;;;4837023;29;20050;-44
2023/05/15 09:09:09;;;;;;;4.13;3.25;;;19.10;1.00;;;;;;4833518;29;20042;-44
2023/05/15 09:11:38;;;;;;;3.88;2.67;;;19.10;1.00;;;;;;4840408;29;20507;-44
2023/05/15 09:14:06;;;;;;;3.25;2.80;;;19.10;1.00;;;;;;4838491;29;20070;-44
2023/05/15 09:16:33;;;;;;;4.25;3.85;;;19.10;1.00;;;;;;4839495;29;20091;-44
2023/05/15 09:19:00;;;;;;;4.43;2.85;;;19.10;1.00;;;;;;4828612;29;20042;-44
2023/05/15 09:21:30;;;;;;;3.88;3.28;;;19.10;1.00;;;;;;4835722;29;20046;-44
2023/05/15 09:24:36;;;;;;;4.15;3.42;;;19.10;1.00;;;;;;4818818;29;20531;-44
2023/05/15 09:27:06;;;;;;;4.43;3.17;;;19.10;1.00;;;;;;4786143;29;20108;-45
2023/05/15 09:29:34;;;;;;;4.10;3.28;;;19.00;1.00;;;;;;4822659;29;20058;-45
2023/05/15 09:32:03;;;;;;;3.55;3.20;;;19.00;1.00;;;;;;4838893;29;20049;-44
2023/05/15 09:34:32;;;;;;;3.15;2.65;;;19.00;1.00;;;;;;4839120;29;20046;-43
2023/05/15 09:37:01;;;;;;;4.60;3.53;;;19.00;1.00;;;;;;4828130;29;20043;-45
2023/05/15 09:39:28;;;;;;;3.65;2.92;;;19.00;1.00;;;;;;4835111;29;20042;-44
2023/05/15 09:42:09;;;;;;;4.53;3.33;;;19.00;1.00;;;;;;4839545;29;20046;-44
2023/05/15 09:44:43;;;;;;;3.42;2.55;;;19.00;1.00;;;;;;4839789;29;20110;-45
2023/05/15 09:47:11;;;;;;;3.25;2.80;;;19.00;1.00;;;;;;4829836;29;20043;-44
2023/05/15 09:49:39;;;;;;;5.30;2.67;;;19.00;1.00;;;;;;4840282;29;20118;-46
2023/05/15 09:52:09;;;;;;;5.13;3.38;;;19.00;1.00;;;;;;4842304;29;20517;-45
2023/05/15 09:54:37;;;;;;;4.40;3.13;;;19.00;1.00;;;;;;4842216;29;20052;-44
2023/05/15 09:57:11;;;;;;;3.75;3.15;;;19.00;1.00;;;;;;4838208;29;20133;-44
2023/05/15 09:59:46;;;;;;;3.42;2.88;;;19.00;1.00;;;;;;4831932;29;20043;-44
2023/05/15 10:02:34;;;;;;;3.78;2.40;;;19.00;1.00;;;;;;4837127;29;20050;-44
2023/05/15 10:05:01;;;;;;;4.28;2.95;;;19.00;1.00;;;;;;4842177;29;20041;-45
2023/05/15 10:10:10;;;;;;;3.10;2.63;;;19.00;1.00;;;;;;4829608;29;20082;-43
2023/05/15 10:12:37;;;;;;;3.20;2.85;;;19.00;1.00;;;;;;4829480;29;20541;-46
2023/05/15 10:15:05;;;;;;;3.63;3.05;;;19.00;1.00;;;;;;4835781;29;20053;-43
2023/05/15 10:17:34;;;;;;;5.03;3.30;;;19.00;1.00;;;;;;4841660;29;20175;-44
2023/05/15 10:20:05;;;;;;;3.20;2.80;;;19.00;1.00;;;;;;4820516;29;20081;-44
2023/05/15 10:22:37;;;;;;;3.60;2.65;;;19.00;1.00;;;;;;4834314;29;20129;-44
2023/05/15 10:25:25;;;;;;;4.10;2.70;;;19.00;1.00;;;;;;4841690;29;20057;-43
2023/05/15 10:27:53;;;;;;;3.08;2.72;;;19.00;1.00;;;;;;4831624;29;20053;-43
2023/05/15 10:30:21;;;;;;;3.17;2.88;;;18.90;1.00;;;;;;4837110;29;20046;-43
2023/05/15 10:32:48;;;;;;;3.10;2.80;;;19.00;1.00;;;;;;4833956;29;20133;-43
2023/05/15 10:35:16;;;;;;;4.13;2.85;;;18.90;1.00;;;;;;4841688;29;20444;-43
2023/05/15 10:37:47;;;;;;;4.60;3.00;;;19.00;1.00;;;;;;4833894;29;20050;-43
2023/05/15 10:40:16;;;;;;;4.68;2.90;;;19.00;1.00;;;;;;4829190;29;20042;-43
2023/05/15 10:42:45;;;;;;;4.57;3.40;;;19.00;1.00;;;;;;4835214;29;20452;-43
2023/05/15 10:45:12;;;;;;;4.68;2.85;;;18.90;1.00;;;;;;4835755;29;20088;-43
2023/05/15 10:47:41;;;;;;;3.70;2.47;;;19.00;1.00;;;;;;4833096;29;20049;-46
2023/05/15 10:50:08;;;;;;;3.08;2.72;;;19.00;1.00;;;;;;4829703;29;20053;-43
2023/05/15 10:52:37;;;;;;;3.10;2.80;;;19.00;1.00;;;;;;4838653;29;20050;-43
2023/05/15 10:55:12;;;;;;;4.57;3.35;;;19.00;1.00;;;;;;4841441;29;20116;-44
2023/05/15 10:57:39;;;;;;;3.80;3.33;;;19.00;1.00;;;;;;4833687;29;20042;-43
2023/05/15 11:00:21;;;;;;;3.45;2.60;;;18.90;1.00;;;;;;4833720;29;20052;-44
2023/05/15 11:02:52;;;;;;;6.68;3.13;;;19.00;1.00;;;;;;4841068;29;20049;-43
2023/05/15 11:05:19;;;;;;;3.95;2.88;;;18.90;1.00;;;;;;4835599;29;20475;-44
2023/05/15 11:08:30;;;;;;;4.35;3.03;;;19.00;1.00;;;;;;4831386;29;20046;-43
2023/05/15 11:11:00;;;;;;;4.65;2.80;;;19.00;1.00;;;;;;4831750;29;20054;-43
2023/05/15 11:13:46;;;;;;;3.50;2.95;;;19.00;1.00;;;;;;4841020;29;20042;-43
2023/05/15 11:16:33;;;;;;;3.13;2.75;;;19.00;1.00;;;;;;4821616;29;20094;-43
2023/05/15 11:19:00;;;;;;;3.63;2.95;;;19.00;1.00;;;;;;4823185;29;20042;-43
2023/05/15 11:21:31;;;;;;;4.80;3.08;;;19.00;1.00;;;;;;4836902;29;20045;-43
2023/05/15 11:24:04;;;;;;;4.72;3.03;;;19.00;1.00;;;;;;4830688;29;20049;-45
2023/05/15 11:26:32;;;;;;;4.32;3.00;;;19.00;1.00;;;;;;4830186;29;20503;-43
2023/05/15 11:29:19;;;;;;;3.20;2.90;;;19.00;1.00;;;;;;4833093;29;20070;-43
2023/05/15 11:31:46;;;;;;;3.47;2.58;;;19.00;1.00;;;;;;4831969;29;20069;-43
2023/05/15 11:34:12;;;;;;;5.35;3.40;;;19.00;1.00;;;;;;4830252;29;20045;-43
2023/05/15 11:36:42;;;;;;;3.80;3.08;;;19.00;1.00;;;;;;4830279;29;20038;-44
2023/05/15 11:39:10;;;;;;;4.72;3.35;;;19.00;1.00;;;;;;4836594;29;20564;-43
2023/05/15 11:41:38;;;;;;;4.07;2.92;;;19.00;1.00;;;;;;4832227;29;20436;-43
2023/05/15 11:44:04;;;;;;;3.75;3.30;;;18.90;1.00;;;;;;4840666;29;20456;-43
2023/05/15 11:46:32;;;;;;;5.05;3.38;;;19.00;1.00;;;;;;4833735;29;20065;-44
2023/05/15 11:49:00;;;;;;;4.88;3.13;;;19.00;1.00;;;;;;4829971;29;20457;-44
2023/05/15 11:51:28;;;;;;;5.75;2.88;;;19.00;1.00;;;;;;4830062;29;20495;-44
2023/05/15 11:53:56;;;;;;;4.40;3.00;;;19.00;1.00;;;;;;4824699;29;20539;-43
2023/05/15 11:56:27;;;;;;;4.03;2.90;;;19.00;1.00;;;;;;4832919;29;20042;-43
2023/05/15 11:58:58;;;;;;;4.45;3.70;;;19.00;1.00;;;;;;4834427;29;20050;-44
2023/05/15 12:01:25;;;;;;;3.75;3.15;;;18.90;1.00;;;;;;4844516;29;20041;-46
2023/05/15 12:03:53;;;;;;;4.32;3.85;;;19.00;1.00;;;;;;4835200;29;20057;-44
2023/05/15 12:06:20;;;;;;;4.63;3.40;;;18.90;1.00;;;;;;4838641;29;20075;-44
2023/05/15 12:08:52;;;;;;;4.97;3.35;;;19.00;1.00;;;;;;4843975;29;20065;-44
2023/05/15 12:11:22;;;;;;;5.28;3.33;;;19.00;1.00;;;;;;4835644;29;20046;-43
2023/05/15 12:13:53;;;;;;;5.10;3.83;;;19.00;1.00;;;;;;4840075;29;20498;-44
2023/05/15 12:16:27;;;;;;;4.47;3.55;;;19.00;1.00;;;;;;4834205;29;20069;-43
2023/05/15 12:18:57;;;;;;;4.28;3.60;;;19.00;1.00;;;;;;4836513;29;20050;-44
2023/05/15 12:21:27;;;;;;;4.45;3.50;;;19.00;1.00;;;;;;4825617;29;20526;-44
2023/05/15 12:23:54;;;;;;;4.55;3.33;;;19.00;1.00;;;;;;4842604;29;20406;-43
2023/05/15 12:26:25;;;;;;;7.50;3.83;;;19.00;1.00;;;;;;4843664;29;20046;-44
2023/05/15 12:28:53;;;;;;;6.95;4.00;;;19.00;1.00;;;;;;4843823;29;20058;-43
2023/05/15 12:31:20;;;;;;;4.80;3.85;;;19.00;1.00;;;;;;4831052;29;20076;-45
2023/05/15 12:33:47;;;;;;;5.22;3.13;;;19.00;1.00;;;;;;4840473;29;20053;-44
2023/05/15 12:36:15;;;;;;;5.65;3.92;;;19.00;1.00;;;;;;4832877;29;20501;-45
2023/05/15 12:38:42;;;;;;;4.40;3.13;;;19.00;1.00;;;;;;4825547;29;20046;-44
2023/05/15 12:41:10;;;;;;;6.43;3.72;;;19.00;1.00;;;;;;4949477;23;20138;-42
2023/05/15 12:43:38;;;;;;;5.55;3.95;;;19.00;1.00;;;;;;4820339;29;20526;-42
2023/05/15 12:46:05;;;;;;;4.97;3.15;;;19.00;1.00;;;;;;4817579;29;20042;-44
2023/05/15 12:48:32;;;;;;;6.57;4.00;;;19.00;1.00;;;;;;4818819;29;20507;-43
2023/05/15 12:51:06;;;;;;;6.93;3.90;;;19.00;1.00;;;;;;4824032;29;20499;-45
2023/05/15 12:53:33;;;;;;;6.47;3.78;;;19.00;1.00;;;;;;4811093;29;20492;-44
2023/05/15 12:56:00;;;;;;;3.85;3.00;;;19.00;1.00;;;;;;4809304;29;20185;-43
2023/05/15 12:58:27;;;;;;;5.47;3.35;;;19.00;1.00;;;;;;4817590;29;20049;-43
2023/05/15 13:00:55;;;;;;;4.32;3.40;;;19.00;1.00;;;;;;4810037;29;20055;-44
2023/05/15 13:03:23;;;;;;;5.93;3.25;;;19.00;1.00;;;;;;4820371;29;20130;-44
2023/05/15 13:05:51;;;;;;;5.50;3.20;;;19.00;1.00;;;;;;4821655;29;20054;-45
2023/05/15 13:08:18;;;;;;;8.40;4.18;;;19.00;1.00;;;;;;4811433;29;20061;-44
2023/05/15 13:13:44;;;;;;;5.40;3.63;;;19.00;1.00;;;;;;4812836;29;20046;-43
2023/05/15 13:16:25;;;;;;;4.20;2.92;;;19.00;1.00;;;;;;4809333;29;20454;-43
2023/05/15 13:18:52;;;;;;;4.90;2.83;;;19.00;1.00;;;;;;4806685;29;20042;-43